createdAt,value
2019-04-07T00:02:37.666Z,15.93
2019-04-07T00:05:26.803Z,15.87
2019-04-07T00:08:16.843Z,18.90
2019-04-07T00:11:07.177Z,16.00
2019-04-07T00:13:37.069Z,16.40
2019-04-07T00:16:26.440Z,17.43
2019-04-07T00:22:10.229Z,16.27
2019-04-07T00:28:32.952Z,16.50
2019-04-07T00:37:49.205Z,18.10
2019-04-07T00:43:52.259Z,18.50
2019-04-07T00:49:55.587Z,17.97
2019-04-07T00:53:04.825Z,17.17
2019-04-07T00:55:56.254Z,16.17
2019-04-07T00:58:26.188Z,16.63
2019-04-07T01:07:46.379Z,16.20
2019-04-07T01:10:35.440Z,16.63
2019-04-07T01:16:32.767Z,15.97
2019-04-07T01:19:22.672Z,15.27
2019-04-07T01:22:24.540Z,15.10
2019-04-07T01:25:07.144Z,16.47
2019-04-07T01:27:49.112Z,15.97
2019-04-07T01:30:31.566Z,19.70
2019-04-07T01:33:13.231Z,17.37
2019-04-07T01:35:55.247Z,16.97
2019-04-07T01:38:36.931Z,16.30
2019-04-07T01:41:25.591Z,15.70
2019-04-07T01:51:13.508Z,14.30
2019-04-07T01:54:38.349Z,16.13
2019-04-07T01:57:59.847Z,14.93
2019-04-07T02:04:02.797Z,18.90
2019-04-07T02:06:51.939Z,16.00
2019-04-07T02:10:00.269Z,16.40
2019-04-07T02:13:08.599Z,17.83
2019-04-07T02:16:09.424Z,16.50
2019-04-07T02:19:01.996Z,16.57
2019-04-07T02:22:23.933Z,12.87
2019-04-07T02:25:20.777Z,12.90
2019-04-07T02:28:22.051Z,14.60
2019-04-07T02:31:25.187Z,15.30
2019-04-07T02:37:27.941Z,13.17
2019-04-07T02:40:35.999Z,14.83
2019-04-07T02:43:44.605Z,14.17
2019-04-07T02:46:53.387Z,14.83
2019-04-07T02:49:32.189Z,15.20
2019-04-07T02:52:59.739Z,15.77
2019-04-07T03:02:36.553Z,14.27
2019-04-07T03:05:16.390Z,14.30
2019-04-07T03:11:40.473Z,14.40
2019-04-07T03:21:04.065Z,11.77
2019-04-07T03:26:53.362Z,12.03
2019-04-07T03:30:03.577Z,13.23
2019-04-07T03:33:15.332Z,12.30
2019-04-07T03:36:30.237Z,13.03
2019-04-07T03:39:57.473Z,14.10
2019-04-07T03:43:05.741Z,13.63
2019-04-07T03:46:14.226Z,12.47
2019-04-07T03:49:09.892Z,13.00
2019-04-07T03:52:37.933Z,13.33
2019-04-07T03:55:46.135Z,12.60
2019-04-07T03:58:54.249Z,13.03
2019-04-07T04:02:02.198Z,13.60
2019-04-07T04:05:10.580Z,13.07
2019-04-07T04:08:02.154Z,14.00
2019-04-07T04:11:10.035Z,13.77
2019-04-07T04:17:11.610Z,14.27
2019-04-07T04:19:41.291Z,15.00
2019-04-07T04:22:30.811Z,14.43
2019-04-07T04:25:19.889Z,13.33
2019-04-07T04:31:30.303Z,11.30
2019-04-07T04:34:19.361Z,12.23
2019-04-07T04:37:09.404Z,12.40
2019-04-07T04:49:23.711Z,11.93
2019-04-07T04:52:33.413Z,11.80
2019-04-07T04:58:30.561Z,11.90
2019-04-07T05:01:19.739Z,12.07
2019-04-07T05:07:04.185Z,12.40
2019-04-07T05:13:27.268Z,12.50
2019-04-07T05:16:08.903Z,12.07
2019-04-07T05:18:50.954Z,10.77
2019-04-07T05:21:32.522Z,12.87
2019-04-07T05:24:22.225Z,15.60
2019-04-07T05:27:12.786Z,26.97
2019-04-07T05:33:36.688Z,16.93
2019-04-07T05:36:46.776Z,14.23
2019-04-07T05:39:56.589Z,13.10
2019-04-07T05:43:04.792Z,10.00
2019-04-07T05:45:36.777Z,11.70
2019-04-07T05:48:44.581Z,12.70
2019-04-07T05:51:33.877Z,12.73
2019-04-07T05:54:43.861Z,12.07
2019-04-07T05:57:14.110Z,13.77
2019-04-07T05:59:43.828Z,12.57
2019-04-07T06:02:34.107Z,13.07
2019-04-07T06:08:37.141Z,12.23
2019-04-07T06:17:45.790Z,13.57
2019-04-07T06:20:17.738Z,12.77
2019-04-07T06:23:09.913Z,11.83
2019-04-07T06:26:00.241Z,12.80
2019-04-07T06:28:54.565Z,13.60
2019-04-07T06:32:02.314Z,13.87
2019-04-07T06:34:50.708Z,15.77
2019-04-07T06:38:05.268Z,18.63
2019-04-07T06:41:10.443Z,15.90
2019-04-07T06:44:10.055Z,16.57
2019-04-07T06:47:30.788Z,17.00
2019-04-07T06:50:59.258Z,21.53
2019-04-07T06:54:26.258Z,24.00
2019-04-07T06:57:36.742Z,25.23
2019-04-07T07:01:03.456Z,27.27
2019-04-07T07:03:53.016Z,27.93
2019-04-07T07:07:21.615Z,28.30
2019-04-07T07:10:32.595Z,28.17
2019-04-07T07:13:41.327Z,29.03
2019-04-07T07:16:58.779Z,28.33
2019-04-07T07:20:02.374Z,27.87
2019-04-07T07:23:28.635Z,25.40
2019-04-07T07:26:18.102Z,25.87
2019-04-07T07:29:00.868Z,27.33
2019-04-07T07:31:31.098Z,25.20
2019-04-07T07:34:21.149Z,25.50
2019-04-07T07:37:31.104Z,24.83
2019-04-07T07:40:41.877Z,23.97
2019-04-07T07:43:51.405Z,23.20
2019-04-07T07:46:42.162Z,22.63
2019-04-07T07:49:35.993Z,23.23
2019-04-07T07:52:22.040Z,22.70
2019-04-07T07:55:11.959Z,21.37
2019-04-07T07:58:21.127Z,21.60
2019-04-07T08:01:13.078Z,21.67
2019-04-07T08:04:20.724Z,21.20
2019-04-07T08:07:22.256Z,18.87
2019-04-07T08:10:04.900Z,18.67
2019-04-07T08:12:49.382Z,19.77
2019-04-07T08:15:32.239Z,24.17
2019-04-07T08:18:12.815Z,22.00
2019-04-07T08:20:54.364Z,21.50
2019-04-07T08:23:36.288Z,20.53
2019-04-07T08:26:19.359Z,20.80
2019-04-07T08:29:05.698Z,19.03
2019-04-07T08:31:33.703Z,17.03
2019-04-07T08:34:43.684Z,16.57
2019-04-07T08:37:53.390Z,13.47
2019-04-07T08:41:03.097Z,14.30
2019-04-07T08:44:12.603Z,16.33
2019-04-07T08:50:10.495Z,20.33
2019-04-07T08:53:20.027Z,21.50
2019-04-07T08:56:09.829Z,22.93
2019-04-07T09:02:28.423Z,23.27
2019-04-07T09:05:10.411Z,23.90
2019-04-07T09:07:51.921Z,20.07
2019-04-07T09:10:40.509Z,24.00
2019-04-07T09:13:22.466Z,18.20
2019-04-07T09:16:23.688Z,23.10
2019-04-07T09:22:51.518Z,16.33
2019-04-07T09:26:11.950Z,17.60
2019-04-07T09:29:12.758Z,20.07
2019-04-07T09:35:25.818Z,15.90
2019-04-07T09:38:50.230Z,17.30
2019-04-07T09:42:09.991Z,18.57
2019-04-07T09:45:12.687Z,17.53
2019-04-07T09:48:13.698Z,17.10
2019-04-07T09:51:20.727Z,17.43
2019-04-07T09:54:42.030Z,15.07
2019-04-07T10:00:55.590Z,14.60
2019-04-07T10:07:03.665Z,14.63
2019-04-07T10:10:14.515Z,14.83
2019-04-07T10:13:40.951Z,14.37
2019-04-07T10:16:49.532Z,15.37
2019-04-07T10:19:57.600Z,14.67
2019-04-07T10:22:47.265Z,13.67
2019-04-07T10:25:56.086Z,15.40
2019-04-07T10:29:04.567Z,13.60
2019-04-07T10:32:13.591Z,12.33
2019-04-07T10:35:17.920Z,10.90
2019-04-07T10:38:46.502Z,13.37
2019-04-07T10:45:21.793Z,14.73
2019-04-07T10:48:16.598Z,14.00
2019-04-07T10:51:17.424Z,12.77
2019-04-07T10:54:06.644Z,12.13
2019-04-07T10:57:14.675Z,11.13
2019-04-07T11:00:04.573Z,11.80
2019-04-07T11:03:13.181Z,9.47
2019-04-07T11:06:21.613Z,9.30
2019-04-07T11:09:11.188Z,8.60
2019-04-07T11:12:19.896Z,9.27
2019-04-07T11:15:27.951Z,9.70
2019-04-07T11:18:23.885Z,11.60
2019-04-07T11:21:31.866Z,11.27
2019-04-07T11:24:40.179Z,11.77
2019-04-07T11:27:37.734Z,11.40
2019-04-07T11:30:45.795Z,11.17
2019-04-07T11:33:54.499Z,10.63
2019-04-07T11:37:02.585Z,10.60
2019-04-07T11:40:10.794Z,10.97
2019-04-07T11:43:19.540Z,10.27
2019-04-07T11:46:10.887Z,9.50
2019-04-07T11:52:36.513Z,9.23
2019-04-07T11:56:08.776Z,9.00
2019-04-07T11:59:34.798Z,8.17
2019-04-07T12:03:03.133Z,7.73
2019-04-07T12:06:02.563Z,8.87
2019-04-07T12:09:31.182Z,8.97
2019-04-07T12:12:39.667Z,9.93
2019-04-07T12:15:48.711Z,10.30
2019-04-07T12:18:57.813Z,9.67
2019-04-07T12:21:52.652Z,8.93
2019-04-07T12:25:02.090Z,9.50
2019-04-07T12:28:30.100Z,8.63
2019-04-07T12:31:39.139Z,8.63
2019-04-07T12:34:28.634Z,8.23
2019-04-07T12:37:39.314Z,9.20
2019-04-07T12:41:15.141Z,10.13
2019-04-07T12:44:35.361Z,10.77
2019-04-07T12:47:28.414Z,11.63
2019-04-07T12:50:51.060Z,12.30
2019-04-07T12:53:53.656Z,12.17
2019-04-07T12:56:57.622Z,12.03
2019-04-07T12:59:57.054Z,11.70
2019-04-07T13:05:48.752Z,11.50
2019-04-07T13:08:58.165Z,11.50
2019-04-07T13:18:31.211Z,11.13
2019-04-07T13:21:38.189Z,10.87
2019-04-07T13:24:48.562Z,10.30
2019-04-07T13:28:15.264Z,10.73
2019-04-07T13:31:23.363Z,10.47
2019-04-07T13:34:31.863Z,10.63
2019-04-07T13:37:41.606Z,10.03
2019-04-07T13:41:09.409Z,10.00
2019-04-07T13:44:18.578Z,10.10
2019-04-07T13:47:00.712Z,9.07
2019-04-07T13:49:50.175Z,9.07
2019-04-07T13:56:12.952Z,9.97
2019-04-07T13:59:44.062Z,8.83
2019-04-07T14:03:10.141Z,9.00
2019-04-07T14:05:46.424Z,8.60
2019-04-07T14:09:14.872Z,8.20
2019-04-07T14:12:23.735Z,8.00
2019-04-07T14:15:52.151Z,7.87
2019-04-07T14:19:21.094Z,6.80
2019-04-07T14:22:17.736Z,5.37
2019-04-07T14:25:06.786Z,5.50
2019-04-07T14:28:14.422Z,4.90
2019-04-07T14:31:23.067Z,4.63
2019-04-07T14:34:11.876Z,4.13
2019-04-07T14:37:01.168Z,4.80
2019-04-07T14:39:50.235Z,4.57
2019-04-07T14:42:50.771Z,4.93
2019-04-07T14:45:52.669Z,6.00
2019-04-07T14:49:00.031Z,5.27
2019-04-07T14:52:10.935Z,6.70
2019-04-07T14:55:38.131Z,4.70
2019-04-07T14:58:39.398Z,4.30
2019-04-07T15:01:41.131Z,4.40
2019-04-07T15:04:25.486Z,4.00
2019-04-07T15:07:29.973Z,4.30
2019-04-07T15:10:31.895Z,3.80
2019-04-07T15:13:17.185Z,3.97
2019-04-07T15:15:49.901Z,3.80
2019-04-07T15:18:56.820Z,4.30
2019-04-07T15:21:46.359Z,4.83
2019-04-07T15:24:55.956Z,5.13
2019-04-07T15:27:45.641Z,6.27
2019-04-07T15:30:55.589Z,6.40
2019-04-07T15:37:21.577Z,4.97
2019-04-07T15:40:30.857Z,6.50
2019-04-07T15:43:38.775Z,4.93
2019-04-07T15:46:27.763Z,5.10
2019-04-07T15:49:17.304Z,4.87
2019-04-07T15:52:08.315Z,5.90
2019-04-07T15:55:16.848Z,6.60
2019-04-07T15:58:06.403Z,6.83
2019-04-07T16:00:55.601Z,6.67
2019-04-07T16:03:37.090Z,6.80
2019-04-07T16:06:07.800Z,6.40
2019-04-07T16:09:30.428Z,7.10
2019-04-07T16:12:27.452Z,6.70
2019-04-07T16:14:57.867Z,6.33
2019-04-07T16:17:27.805Z,6.90
2019-04-07T16:20:23.259Z,6.57
2019-04-07T16:23:28.291Z,6.73
2019-04-07T16:26:37.424Z,5.73
2019-04-07T16:29:08.119Z,5.90
2019-04-07T16:32:17.217Z,5.73
2019-04-07T16:34:47.065Z,6.43
2019-04-07T16:40:31.649Z,5.20
2019-04-07T16:43:41.989Z,6.07
2019-04-07T16:46:54.675Z,7.27
2019-04-07T16:50:01.055Z,6.30
2019-04-07T16:53:10.770Z,7.87
2019-04-07T16:56:21.997Z,6.53
2019-04-07T16:59:23.351Z,6.80
2019-04-07T17:02:05.406Z,6.60
2019-04-07T17:04:46.738Z,7.07
2019-04-07T17:07:29.721Z,6.70
2019-04-07T17:10:11.706Z,6.87
2019-04-07T17:12:54.549Z,6.93
2019-04-07T17:15:39.592Z,6.23
2019-04-07T17:18:21.384Z,6.20
2019-04-07T17:21:06.437Z,5.80
2019-04-07T17:23:46.256Z,7.43
2019-04-07T17:26:16.309Z,11.63
2019-04-07T17:29:05.403Z,11.80
2019-04-07T17:31:35.146Z,12.60
2019-04-07T17:34:24.127Z,80.53
2019-04-07T17:37:13.486Z,13.37
2019-04-07T17:47:17.751Z,9.83
2019-04-07T17:50:29.352Z,7.60
2019-04-07T17:53:55.121Z,10.63
2019-04-07T17:57:05.468Z,7.47
2019-04-07T18:00:32.330Z,6.37
2019-04-07T18:03:10.952Z,14.63
2019-04-07T18:06:19.460Z,8.87
2019-04-07T18:09:11.996Z,9.90
2019-04-07T18:12:18.510Z,10.30
2019-04-07T18:15:27.426Z,10.83
2019-04-07T18:18:35.496Z,11.00
2019-04-07T18:21:46.863Z,13.70
2019-04-07T18:24:53.627Z,54.83
2019-04-07T18:27:48.245Z,17.67
2019-04-07T18:31:11.854Z,16.07
2019-04-07T18:34:02.763Z,13.63
2019-04-07T18:44:04.535Z,14.43
2019-04-07T18:47:29.389Z,11.73
2019-04-07T18:50:38.943Z,13.27
2019-04-07T18:54:09.582Z,11.10
2019-04-07T18:57:16.771Z,10.67
2019-04-07T19:00:27.541Z,10.90
2019-04-07T19:03:53.839Z,10.63
2019-04-07T19:07:02.949Z,10.40
2019-04-07T19:10:06.306Z,9.80
2019-04-07T19:16:36.940Z,9.53
2019-04-07T19:19:26.666Z,8.80
2019-04-07T19:22:26.263Z,8.53
2019-04-07T19:25:35.594Z,8.80
2019-04-07T19:28:25.198Z,8.77
2019-04-07T19:31:29.947Z,8.83
2019-04-07T19:34:50.959Z,8.70
2019-04-07T19:41:09.150Z,8.50
2019-04-07T19:43:59.182Z,8.23
2019-04-07T19:47:06.510Z,8.97
2019-04-07T19:50:27.324Z,7.87
2019-04-07T19:53:30.359Z,8.93
2019-04-07T19:56:31.697Z,8.97
2019-04-07T19:59:33.770Z,9.00
2019-04-07T20:02:39.098Z,8.10
2019-04-07T20:09:19.367Z,8.10
2019-04-07T20:15:50.059Z,7.97
2019-04-07T20:22:13.750Z,7.43
2019-04-07T20:25:17.566Z,7.37
2019-04-07T20:28:06.586Z,8.23
2019-04-07T20:31:05.729Z,7.77
2019-04-07T20:34:37.334Z,7.30
2019-04-07T20:38:03.475Z,9.33
2019-04-07T20:44:14.397Z,7.87
2019-04-07T20:47:22.994Z,8.90
2019-04-07T20:50:31.302Z,8.13
2019-04-07T20:53:39.595Z,8.67
2019-04-07T20:56:48.384Z,7.67
2019-04-07T20:59:56.961Z,8.30
2019-04-07T21:03:27.508Z,8.20
2019-04-07T21:06:55.163Z,7.10
2019-04-07T21:09:48.048Z,7.67
2019-04-07T21:12:48.336Z,7.70
2019-04-07T21:16:16.626Z,7.37
2019-04-07T21:22:40.099Z,7.40
2019-04-07T21:28:38.088Z,6.70
2019-04-07T21:31:36.476Z,7.20
2019-04-07T21:35:04.690Z,6.70
2019-04-07T21:38:13.520Z,6.47
2019-04-07T21:40:51.371Z,6.80
2019-04-07T21:44:00.386Z,5.93
2019-04-07T21:47:08.445Z,6.17
2019-04-07T21:50:17.141Z,6.03
2019-04-07T21:53:28.171Z,6.00
2019-04-07T21:56:46.061Z,6.00
2019-04-07T21:59:55.042Z,5.80
2019-04-07T22:02:31.802Z,6.00
2019-04-07T22:05:27.199Z,5.60
2019-04-07T22:08:54.591Z,5.63
2019-04-07T22:11:44.707Z,5.53
2019-04-07T22:14:37.615Z,5.63
2019-04-07T22:20:54.786Z,5.77
2019-04-07T22:24:21.902Z,4.80
2019-04-07T22:27:11.267Z,4.93
2019-04-07T22:30:14.469Z,4.50
2019-04-07T22:32:44.823Z,4.43
2019-04-07T22:35:14.854Z,4.17
2019-04-07T22:38:05.151Z,4.30
2019-04-07T22:40:55.181Z,5.00
2019-04-07T22:43:47.813Z,4.70
2019-04-07T22:46:54.412Z,4.17
2019-04-07T22:49:45.439Z,3.87
2019-04-07T22:55:46.879Z,4.00
2019-04-07T22:58:36.214Z,3.70
2019-04-07T23:01:25.160Z,3.93
2019-04-07T23:04:14.648Z,3.77
2019-04-07T23:06:44.703Z,3.80
2019-04-07T23:09:33.671Z,3.80
2019-04-07T23:12:22.578Z,3.97
2019-04-07T23:15:13.473Z,4.20
2019-04-07T23:18:03.169Z,3.93
2019-04-07T23:21:12.191Z,3.70
2019-04-07T23:27:09.083Z,3.50
2019-04-07T23:29:51.141Z,2.90
2019-04-07T23:32:33.068Z,2.90
2019-04-07T23:35:15.114Z,3.23
2019-04-07T23:37:57.415Z,3.10
2019-04-07T23:40:39.840Z,3.27
2019-04-07T23:43:21.697Z,3.23
2019-04-07T23:46:04.986Z,3.43
2019-04-07T23:48:47.650Z,3.70
2019-04-07T23:51:29.735Z,3.37
2019-04-07T23:54:11.611Z,3.50
2019-04-07T23:56:54.111Z,3.40
2019-04-07T23:59:35.619Z,3.17
